createdAt,value
2023-03-11T00:00:07.577Z,95485.22
2023-03-11T00:02:56.372Z,95469.56
2023-03-11T00:05:44.860Z,95499.13
2023-03-11T00:08:32.057Z,95503.22
2023-03-11T00:11:19.839Z,95522.19
2023-03-11T00:14:06.803Z,95526.91
2023-03-11T00:16:53.924Z,95528.31
2023-03-11T00:19:40.869Z,95528.53
2023-03-11T00:22:27.717Z,95542.19
2023-03-11T00:25:14.790Z,95553.81
2023-03-11T00:28:01.868Z,95546.50
2023-03-11T00:30:48.898Z,95562.00
2023-03-11T00:33:35.739Z,95565.06
2023-03-11T00:36:33.879Z,95576.06
2023-03-11T00:39:20.777Z,95582.59
2023-03-11T00:42:07.888Z,95577.72
2023-03-11T00:44:54.719Z,95578.97
2023-03-11T00:47:42.206Z,95577.13
2023-03-11T00:50:31.551Z,95585.47
2023-03-11T00:53:18.412Z,95583.25
2023-03-11T00:56:09.939Z,95588.75
2023-03-11T00:58:57.010Z,95592.00
2023-03-11T01:01:43.922Z,95601.78
2023-03-11T01:04:30.847Z,95604.84
2023-03-11T01:07:17.756Z,95607.91
2023-03-11T01:10:06.583Z,95612.81
2023-03-11T01:12:53.409Z,95602.41
2023-03-11T01:15:40.396Z,95609.16
2023-03-11T01:18:27.591Z,95618.31
2023-03-11T01:21:14.543Z,95613.22
2023-03-11T01:24:01.336Z,95627.69
2023-03-11T01:26:48.243Z,95619.34
2023-03-11T01:29:35.092Z,95631.97
2023-03-11T01:32:22.029Z,95633.19
2023-03-11T01:35:12.257Z,95642.16
2023-03-11T01:37:59.380Z,95637.25
2023-03-11T01:40:49.371Z,95639.09
2023-03-11T01:43:47.089Z,95655.56
2023-03-11T01:47:00.144Z,95648.66
2023-03-11T01:49:48.836Z,95659.63
2023-03-11T01:52:35.653Z,95647.03
2023-03-11T01:55:22.564Z,95646.22
2023-03-11T01:58:12.186Z,95658.00
2023-03-11T02:01:00.250Z,95647.66
2023-03-11T02:03:48.072Z,95662.09
2023-03-11T02:06:35.231Z,95660.63
2023-03-11T02:09:24.123Z,95661.88
2023-03-11T02:12:12.196Z,95673.47
2023-03-11T02:14:59.139Z,95672.06
2023-03-11T02:17:46.024Z,95687.50
2023-03-11T02:20:59.220Z,95685.03
2023-03-11T02:24:07.856Z,95684.44
2023-03-11T02:27:24.225Z,95677.13
2023-03-11T02:30:12.729Z,95679.13
2023-03-11T02:32:59.988Z,95687.47
2023-03-11T02:35:47.070Z,95697.44
2023-03-11T02:38:33.976Z,95694.97
2023-03-11T02:41:20.829Z,95700.66
2023-03-11T02:44:09.697Z,95714.91
2023-03-11T02:46:56.836Z,95716.13
2023-03-11T02:49:43.955Z,95725.28
2023-03-11T02:52:32.415Z,95727.91
2023-03-11T02:55:20.523Z,95727.28
2023-03-11T02:58:07.421Z,95730.94
2023-03-11T03:00:54.311Z,95736.00
2023-03-11T03:03:41.208Z,95742.09
2023-03-11T03:06:28.671Z,95746.97
2023-03-11T03:09:15.611Z,95746.16
2023-03-11T03:12:04.204Z,95752.66
2023-03-11T03:14:51.222Z,95758.53
2023-03-11T03:17:38.632Z,95773.56
2023-03-11T03:20:26.550Z,95770.31
2023-03-11T03:23:13.518Z,95766.88
2023-03-11T03:26:00.959Z,95771.53
2023-03-11T03:28:47.964Z,95782.28
2023-03-11T03:31:34.917Z,95781.88
2023-03-11T03:34:21.841Z,95780.03
2023-03-11T03:37:08.704Z,95786.31
2023-03-11T03:39:55.579Z,95789.38
2023-03-11T03:42:42.492Z,95781.84
2023-03-11T03:45:29.409Z,95787.28
2023-03-11T03:48:16.281Z,95792.78
2023-03-11T03:51:08.416Z,95807.00
2023-03-11T03:53:55.414Z,95794.78
2023-03-11T03:56:42.269Z,95799.25
2023-03-11T03:59:29.104Z,95797.81
2023-03-11T04:02:16.004Z,95803.31
2023-03-11T04:05:03.311Z,95810.63
2023-03-11T04:07:50.169Z,95816.91
2023-03-11T04:10:37.067Z,95816.06
2023-03-11T04:13:24.090Z,95826.22
2023-03-11T04:16:18.950Z,95816.66
2023-03-11T04:19:05.901Z,95838.19
2023-03-11T04:21:52.756Z,95836.56
2023-03-11T04:24:39.604Z,95837.53
2023-03-11T04:27:26.603Z,95835.91
2023-03-11T04:30:13.650Z,95842.22
2023-03-11T04:33:00.501Z,95846.69
2023-03-11T04:35:47.443Z,95843.41
2023-03-11T04:38:34.902Z,95851.53
2023-03-11T04:41:21.715Z,95841.13
2023-03-11T04:44:08.661Z,95847.81
2023-03-11T04:46:55.523Z,95853.09
2023-03-11T04:49:42.667Z,95855.94
2023-03-11T04:52:29.519Z,95867.69
2023-03-11T04:55:16.774Z,95866.06
2023-03-11T04:58:04.120Z,95863.59
2023-03-11T05:00:52.120Z,95871.72
2023-03-11T05:03:39.022Z,95872.91
2023-03-11T05:06:26.069Z,95872.31
2023-03-11T05:09:12.998Z,95883.03
2023-03-11T05:11:59.847Z,95885.06
2023-03-11T05:14:46.691Z,95893.78
2023-03-11T05:17:33.503Z,95904.53
2023-03-11T05:20:20.348Z,95913.47
2023-03-11T05:23:07.277Z,95914.47
2023-03-11T05:25:54.124Z,95923.56
2023-03-11T05:28:41.035Z,95913.22
2023-03-11T05:31:27.928Z,95918.66
2023-03-11T05:34:15.434Z,95920.69
2023-03-11T05:37:03.292Z,95913.75
2023-03-11T05:39:51.992Z,95910.50
2023-03-11T05:42:41.275Z,95915.94
2023-03-11T05:45:28.017Z,95925.69
2023-03-11T05:48:14.889Z,95927.72
2023-03-11T05:51:06.907Z,95919.16
2023-03-11T05:53:53.767Z,95924.66
2023-03-11T05:56:45.159Z,95929.44
2023-03-11T05:59:35.478Z,95934.06
2023-03-11T06:02:23.265Z,95936.09
2023-03-11T06:05:13.315Z,95939.91
2023-03-11T06:08:00.473Z,95936.47
2023-03-11T06:10:48.983Z,95944.75
2023-03-11T06:13:36.880Z,95935.22
2023-03-11T06:16:24.872Z,95948.56
2023-03-11T06:19:11.763Z,95958.13
2023-03-11T06:21:58.635Z,95961.16
2023-03-11T06:24:45.486Z,95975.16
2023-03-11T06:27:35.577Z,95970.22
2023-03-11T06:30:24.462Z,95975.31
2023-03-11T06:33:11.400Z,95978.16
2023-03-11T06:35:59.473Z,95978.50
2023-03-11T06:38:46.677Z,95984.81
2023-03-11T06:41:36.862Z,95976.06
2023-03-11T06:44:23.764Z,95978.25
2023-03-11T06:47:10.679Z,95986.63
2023-03-11T06:49:57.617Z,96000.75
2023-03-11T06:52:44.562Z,96000.19
2023-03-11T06:55:31.875Z,96009.38
2023-03-11T06:58:18.736Z,96006.84
2023-03-11T07:01:12.659Z,96005.09
2023-03-11T07:03:59.629Z,96013.28
2023-03-11T07:06:46.840Z,96019.19
2023-03-11T07:09:33.663Z,96017.53
2023-03-11T07:12:23.083Z,96033.38
2023-03-11T07:15:10.553Z,96039.66
2023-03-11T07:17:57.402Z,96052.03
2023-03-11T07:20:44.298Z,96053.94
2023-03-11T07:23:31.436Z,96047.88
2023-03-11T07:26:18.730Z,96061.41
2023-03-11T07:29:05.777Z,96050.72
2023-03-11T07:31:52.752Z,96058.94
2023-03-11T07:34:39.712Z,96053.47
2023-03-11T07:37:26.546Z,96066.47
2023-03-11T07:40:13.628Z,96059.56
2023-03-11T07:43:00.440Z,96071.75
2023-03-11T07:45:47.381Z,96076.41
2023-03-11T07:48:35.290Z,96082.06
2023-03-11T07:51:23.262Z,96089.31
2023-03-11T07:54:11.395Z,96087.69
2023-03-11T07:56:58.266Z,96099.28
2023-03-11T07:59:45.169Z,96092.34
2023-03-11T08:02:32.026Z,96100.28
2023-03-11T08:05:20.872Z,96103.09
2023-03-11T08:08:07.704Z,96109.38
2023-03-11T08:10:54.556Z,96117.47
2023-03-11T08:13:42.256Z,96128.22
2023-03-11T08:16:29.506Z,96130.19
2023-03-11T08:19:16.350Z,96150.38
2023-03-11T08:22:03.806Z,96140.91
2023-03-11T08:24:52.108Z,96153.31
2023-03-11T08:27:39.858Z,96161.56
2023-03-11T08:30:26.685Z,96166.28
2023-03-11T08:33:13.552Z,96160.94
2023-03-11T08:36:00.810Z,96168.69
2023-03-11T08:38:48.003Z,96173.22
2023-03-11T08:41:35.391Z,96174.59
2023-03-11T08:44:22.216Z,96179.19
2023-03-11T08:47:09.278Z,96186.34
2023-03-11T08:49:56.482Z,96192.28
2023-03-11T08:52:43.620Z,96192.91
2023-03-11T08:55:30.505Z,96205.13
2023-03-11T08:58:17.666Z,96206.94
2023-03-11T09:01:06.017Z,96205.94
2023-03-11T09:03:52.954Z,96215.69
2023-03-11T09:06:43.960Z,96217.31
2023-03-11T09:09:31.278Z,96221.94
2023-03-11T09:12:18.122Z,96216.66
2023-03-11T09:15:05.843Z,96228.22
2023-03-11T09:17:53.139Z,96233.34
2023-03-11T09:20:40.561Z,96225.56
2023-03-11T09:23:27.394Z,96241.25
2023-03-11T09:26:14.674Z,96230.84
2023-03-11T09:29:01.504Z,96238.75
2023-03-11T09:31:48.484Z,96246.53
2023-03-11T09:34:35.445Z,96243.88
2023-03-11T09:37:22.288Z,96245.50
2023-03-11T09:40:13.087Z,96253.25
2023-03-11T09:43:20.656Z,96247.97
2023-03-11T09:46:27.926Z,96255.88
2023-03-11T09:49:40.517Z,96246.13
2023-03-11T09:53:02.861Z,96260.19
2023-03-11T09:55:54.003Z,96258.50
2023-03-11T09:58:50.616Z,96268.91
2023-03-11T10:01:42.658Z,96266.44
2023-03-11T10:04:57.131Z,96258.50
2023-03-11T10:07:47.847Z,96254.25
2023-03-11T10:10:40.777Z,96250.59
2023-03-11T10:13:34.628Z,96253.09
2023-03-11T10:16:33.326Z,96255.38
2023-03-11T10:19:30.924Z,96264.91
2023-03-11T10:22:23.760Z,96266.19
2023-03-11T10:25:17.174Z,96254.47
2023-03-11T10:28:13.152Z,96254.13
2023-03-11T10:31:25.010Z,96261.50
2023-03-11T10:34:38.218Z,96266.94
2023-03-11T10:37:47.947Z,96274.47
2023-03-11T10:40:37.295Z,96284.66
2023-03-11T10:43:29.900Z,96287.31
2023-03-11T10:46:21.066Z,96290.75
2023-03-11T10:49:16.347Z,96286.50
2023-03-11T10:52:04.115Z,96293.41
2023-03-11T10:55:00.240Z,96290.59
2023-03-11T10:57:47.734Z,96291.41
2023-03-11T11:00:34.549Z,96293.06
2023-03-11T11:03:23.397Z,96288.78
2023-03-11T11:06:26.452Z,96285.31
2023-03-11T11:09:21.855Z,96298.31
2023-03-11T11:12:16.302Z,96298.31
2023-03-11T11:15:03.469Z,96294.88
2023-03-11T11:17:50.810Z,96302.97
2023-03-11T11:20:38.941Z,96291.78
2023-03-11T11:23:39.413Z,96284.84
2023-03-11T11:26:26.909Z,96284.03
2023-03-11T11:29:15.746Z,96285.00
2023-03-11T11:32:21.742Z,96290.28
2023-03-11T11:35:13.797Z,96279.94
2023-03-11T11:38:02.567Z,96292.13
2023-03-11T11:40:50.490Z,96289.47
2023-03-11T11:43:53.317Z,96291.97
2023-03-11T11:46:47.797Z,96295.22
2023-03-11T11:49:35.333Z,96295.41
2023-03-11T11:52:29.725Z,96292.44
2023-03-11T11:55:24.222Z,96293.06
2023-03-11T11:58:14.417Z,96295.34
2023-03-11T12:01:16.430Z,96291.53
2023-03-11T12:04:22.050Z,96299.09
2023-03-11T12:07:44.228Z,96292.81
2023-03-11T12:10:53.280Z,96292.44
2023-03-11T12:14:04.540Z,96287.78
2023-03-11T12:16:59.681Z,96292.91
2023-03-11T12:19:54.324Z,96290.09
2023-03-11T12:23:02.198Z,96295.19
2023-03-11T12:26:25.084Z,96284.44
2023-03-11T12:29:34.567Z,96276.34
2023-03-11T12:32:47.701Z,96283.28
2023-03-11T12:35:35.738Z,96286.53
2023-03-11T12:38:25.448Z,96282.06
2023-03-11T12:41:27.627Z,96283.75
2023-03-11T12:44:22.243Z,96280.09
2023-03-11T12:47:10.129Z,96279.09
2023-03-11T12:50:35.393Z,96281.38
2023-03-11T12:53:42.649Z,96283.84
2023-03-11T12:56:42.579Z,96283.84
2023-03-11T13:00:18.090Z,96276.53
2023-03-11T13:03:26.946Z,96284.31
2023-03-11T13:06:43.230Z,96277.19
2023-03-11T13:09:31.533Z,96270.91
2023-03-11T13:12:41.559Z,96274.19
2023-03-11T13:15:36.219Z,96279.94
2023-03-11T13:18:28.279Z,96278.56
2023-03-11T13:21:27.309Z,96282.13
2023-03-11T13:24:25.870Z,96283.41
2023-03-11T13:27:22.958Z,96290.13
2023-03-11T13:30:20.072Z,96286.28
2023-03-11T13:33:23.830Z,96295.69
2023-03-11T13:36:57.048Z,96297.31
2023-03-11T13:40:14.013Z,96302.44
2023-03-11T13:43:05.544Z,96299.16
2023-03-11T13:45:55.474Z,96313.19
2023-03-11T13:48:45.303Z,96321.75
2023-03-11T13:51:42.747Z,96329.84
2023-03-11T13:54:48.590Z,96332.03
2023-03-11T13:57:38.496Z,96338.53
2023-03-11T14:00:29.014Z,96327.97
2023-03-11T14:03:21.078Z,96336.03
2023-03-11T14:06:10.954Z,96329.94
2023-03-11T14:08:57.900Z,96342.69
2023-03-11T14:11:48.029Z,96347.16
2023-03-11T14:14:43.699Z,96352.25
2023-03-11T14:17:30.579Z,96356.72
2023-03-11T14:20:25.222Z,96360.84
2023-03-11T14:23:18.326Z,96364.50
2023-03-11T14:26:28.140Z,96361.66
2023-03-11T14:29:19.281Z,96369.38
2023-03-11T14:32:29.301Z,96373.84
2023-03-11T14:35:20.656Z,96379.97
2023-03-11T14:38:24.085Z,96378.16
2023-03-11T14:41:13.356Z,96381.63
2023-03-11T14:44:00.097Z,96377.31
2023-03-11T14:46:47.318Z,96383.44
2023-03-11T14:49:34.406Z,96389.56
2023-03-11T14:52:37.177Z,96384.25
2023-03-11T14:55:27.597Z,96385.91
2023-03-11T14:58:20.432Z,96382.25
2023-03-11T15:01:24.649Z,96389.34
2023-03-11T15:04:32.784Z,96392.81
2023-03-11T15:07:20.128Z,96395.28
2023-03-11T15:10:09.641Z,96393.63
2023-03-11T15:13:13.978Z,96397.94
2023-03-11T15:16:03.715Z,96392.81
2023-03-11T15:18:54.300Z,96392.66
2023-03-11T15:21:46.407Z,96396.94
2023-03-11T15:24:36.246Z,96395.28
2023-03-11T15:27:38.806Z,96403.03
2023-03-11T15:30:31.494Z,96405.88
2023-03-11T15:33:33.337Z,96402.56
2023-03-11T15:36:33.073Z,96408.88
2023-03-11T15:39:32.153Z,96400.94
2023-03-11T15:42:24.595Z,96402.09
2023-03-11T15:45:20.990Z,96408.22
2023-03-11T15:48:11.850Z,96407.38
2023-03-11T15:50:59.817Z,96410.22
2023-03-11T15:53:46.688Z,96419.13
2023-03-11T15:56:33.629Z,96417.50
2023-03-11T15:59:20.622Z,96428.25
2023-03-11T16:02:19.774Z,96429.44
2023-03-11T16:05:13.817Z,96433.25
2023-03-11T16:08:00.711Z,96434.44
2023-03-11T16:10:47.581Z,96426.03
2023-03-11T16:13:34.470Z,96430.31
2023-03-11T16:16:21.316Z,96428.84
2023-03-11T16:19:08.339Z,96433.31
2023-03-11T16:21:55.254Z,96429.19
2023-03-11T16:24:43.519Z,96444.22
2023-03-11T16:27:30.729Z,96437.31
2023-03-11T16:30:18.156Z,96440.97
2023-03-11T16:33:05.358Z,96442.13
2023-03-11T16:35:52.354Z,96435.03
2023-03-11T16:38:48.011Z,96444.75
2023-03-11T16:41:43.210Z,96445.78
2023-03-11T16:44:30.055Z,96441.66
2023-03-11T16:47:17.194Z,96460.97
2023-03-11T16:50:04.845Z,96475.00
2023-03-11T16:52:55.530Z,96469.72
2023-03-11T16:55:42.655Z,96483.91
2023-03-11T16:58:29.511Z,96492.50
2023-03-11T17:01:17.952Z,96489.84
2023-03-11T17:04:08.038Z,96488.03
2023-03-11T17:06:55.444Z,96480.13
2023-03-11T17:09:42.640Z,96485.41
2023-03-11T17:12:29.680Z,96490.84
2023-03-11T17:15:16.682Z,96498.59
2023-03-11T17:18:05.116Z,96496.13
2023-03-11T17:20:51.937Z,96500.59
2023-03-11T17:23:39.162Z,96506.06
2023-03-11T17:26:30.277Z,96505.25
2023-03-11T17:29:17.121Z,96506.06
2023-03-11T17:32:06.051Z,96514.94
2023-03-11T17:34:53.059Z,96520.22
2023-03-11T17:37:40.188Z,96518.59
2023-03-11T17:40:29.349Z,96523.72
2023-03-11T17:43:17.228Z,96525.69
2023-03-11T17:46:12.444Z,96522.25
2023-03-11T17:48:59.513Z,96530.31
2023-03-11T17:51:46.614Z,96527.88
2023-03-11T17:54:33.550Z,96541.25
2023-03-11T17:57:20.403Z,96548.34
2023-03-11T18:00:08.127Z,96560.09
2023-03-11T18:02:58.201Z,96564.38
2023-03-11T18:05:55.332Z,96565.38
2023-03-11T18:08:42.319Z,96563.25
2023-03-11T18:11:29.241Z,96562.59
2023-03-11T18:14:16.375Z,96567.06
2023-03-11T18:17:03.311Z,96562.94
2023-03-11T18:19:50.204Z,96571.03
2023-03-11T18:22:38.607Z,96579.94
2023-03-11T18:25:26.906Z,96585.41
2023-03-11T18:28:13.777Z,96583.91
2023-03-11T18:31:12.140Z,96584.09
2023-03-11T18:34:01.856Z,96585.25
2023-03-11T18:36:49.216Z,96601.28
2023-03-11T18:39:36.040Z,96599.59
2023-03-11T18:42:22.894Z,96605.41
2023-03-11T18:45:12.195Z,96609.69
2023-03-11T18:47:59.008Z,96610.69
2023-03-11T18:50:52.044Z,96606.53
2023-03-11T18:53:40.646Z,96606.91
2023-03-11T18:56:31.075Z,96598.97
2023-03-11T18:59:17.845Z,96613.16
2023-03-11T19:02:04.698Z,96613.34
2023-03-11T19:04:51.911Z,96615.31
2023-03-11T19:07:38.855Z,96608.72
2023-03-11T19:10:25.683Z,96614.81
2023-03-11T19:13:12.633Z,96615.81
2023-03-11T19:16:00.170Z,96617.63
2023-03-11T19:18:47.422Z,96624.75
2023-03-11T19:21:34.458Z,96627.53
2023-03-11T19:24:21.399Z,96633.66
2023-03-11T19:27:08.221Z,96633.81
2023-03-11T19:29:55.091Z,96632.31
2023-03-11T19:32:42.065Z,96649.16
2023-03-11T19:35:29.010Z,96630.19
2023-03-11T19:38:15.975Z,96626.56
2023-03-11T19:41:03.908Z,96636.13
2023-03-11T19:43:50.780Z,96633.81
2023-03-11T19:46:38.002Z,96630.53
2023-03-11T19:49:24.937Z,96630.84
2023-03-11T19:52:11.801Z,96630.03
2023-03-11T19:54:58.757Z,96625.75
2023-03-11T19:57:45.664Z,96625.94
2023-03-11T20:00:35.386Z,96619.00
2023-03-11T20:03:22.946Z,96622.00
2023-03-11T20:06:10.253Z,96624.97
2023-03-11T20:08:57.240Z,96623.28
2023-03-11T20:11:45.705Z,96636.66
2023-03-11T20:14:32.656Z,96630.38
2023-03-11T20:17:19.548Z,96630.56
2023-03-11T20:20:07.003Z,96633.34
2023-03-11T20:22:54.728Z,96647.38
2023-03-11T20:25:42.424Z,96630.72
2023-03-11T20:28:29.372Z,96642.59
2023-03-11T20:31:21.627Z,96642.59
2023-03-11T20:34:09.341Z,96644.41
2023-03-11T20:36:56.250Z,96643.75
2023-03-11T20:39:43.057Z,96631.72
2023-03-11T20:42:31.673Z,96637.31
2023-03-11T20:45:22.049Z,96640.97
2023-03-11T20:48:09.373Z,96635.00
2023-03-11T20:51:03.188Z,96640.28
2023-03-11T20:53:50.123Z,96637.97
2023-03-11T20:56:37.061Z,96648.69
2023-03-11T20:59:23.926Z,96637.47
2023-03-11T21:02:13.766Z,96652.47
2023-03-11T21:05:00.813Z,96654.47
2023-03-11T21:07:48.963Z,96661.56
2023-03-11T21:10:36.137Z,96656.63
2023-03-11T21:13:23.072Z,96662.03
2023-03-11T21:16:10.181Z,96663.03
2023-03-11T21:18:57.213Z,96666.00
2023-03-11T21:21:44.279Z,96665.34
2023-03-11T21:24:31.158Z,96667.31
2023-03-11T21:27:20.907Z,96660.41
2023-03-11T21:30:09.581Z,96671.91
2023-03-11T21:32:56.550Z,96665.19
2023-03-11T21:35:43.559Z,96661.88
2023-03-11T21:38:32.579Z,96670.59
2023-03-11T21:41:23.793Z,96667.47
2023-03-11T21:44:10.779Z,96667.78
2023-03-11T21:46:57.913Z,96679.19
2023-03-11T21:49:44.915Z,96672.41
2023-03-11T21:52:31.867Z,96680.47
2023-03-11T21:55:18.891Z,96677.81
2023-03-11T21:58:05.793Z,96674.72
2023-03-11T22:00:53.141Z,96676.34
2023-03-11T22:03:41.066Z,96678.31
2023-03-11T22:06:28.084Z,96674.22
2023-03-11T22:09:15.080Z,96683.25
2023-03-11T22:12:02.543Z,96687.72
2023-03-11T22:14:49.593Z,96687.03
2023-03-11T22:17:36.729Z,96690.66
2023-03-11T22:20:23.764Z,96690.00
2023-03-11T22:23:10.786Z,96688.34
2023-03-11T22:25:57.873Z,96687.84
2023-03-11T22:28:44.730Z,96690.47
2023-03-11T22:31:31.926Z,96688.97
2023-03-11T22:34:18.995Z,96691.78
2023-03-11T22:37:07.080Z,96688.66
2023-03-11T22:39:54.000Z,96696.56
2023-03-11T22:42:40.953Z,96694.22
2023-03-11T22:45:27.783Z,96696.19
2023-03-11T22:48:14.944Z,96692.72
2023-03-11T22:51:02.211Z,96702.63
2023-03-11T22:53:49.110Z,96707.38
2023-03-11T22:56:36.078Z,96702.25
2023-03-11T22:59:22.979Z,96706.88
2023-03-11T23:02:10.003Z,96708.81
2023-03-11T23:04:56.880Z,96709.13
2023-03-11T23:07:45.272Z,96711.78
2023-03-11T23:10:32.109Z,96720.66
2023-03-11T23:13:18.955Z,96715.06
2023-03-11T23:16:08.531Z,96714.25
2023-03-11T23:18:56.226Z,96724.91
2023-03-11T23:21:43.105Z,96715.50
2023-03-11T23:24:30.455Z,96718.31
2023-03-11T23:27:17.414Z,96717.97
2023-03-11T23:30:05.236Z,96731.13
2023-03-11T23:32:52.147Z,96735.72
2023-03-11T23:35:42.804Z,96731.59
2023-03-11T23:38:30.055Z,96734.38
2023-03-11T23:41:19.481Z,96738.16
2023-03-11T23:44:06.465Z,96737.63
2023-03-11T23:46:53.319Z,96736.97
2023-03-11T23:49:40.376Z,96737.13
2023-03-11T23:52:27.374Z,96733.84
2023-03-11T23:55:14.519Z,96731.50
2023-03-11T23:58:01.354Z,96729.88
